Time;durP1;ratioP1;P1;durP2;ratioP2;P2;SDS_P1;SDS_P2;PMS_P1;PMS_P2;Temp;Humidity;BMP_temperature;BMP_pressure;BME280_temperature;BME280_humidity;BME280_pressure;Samples;Min_cycle;Max_cycle;Signal;HPM_P1;HPM_P2
2022/04/23 00:00:00;;;;;;;15.1;13.7;;;;;;;11.2;100.0;100250;;;;
2022/04/23 00:01:00;;;;;;;15.1;13.7;;;;;;;11.1;100.0;100250;;;;
2022/04/23 00:02:00;;;;;;;15.1;13.7;;;;;;;11.1;100.0;100250;;;;
2022/04/23 00:03:01;;;;;;;15.1;13.7;;;;;;;11.1;100.0;100250;;;;
2022/04/23 00:04:00;;;;;;;15.1;13.7;;;;;;;11.1;100.0;100250;;;;
2022/04/23 00:05:00;;;;;;;15.1;13.7;;;;;;;11.1;100.0;100250;;;;
2022/04/23 00:06:00;;;;;;;15.1;13.7;;;;;;;11.1;100.0;100250;;;;
2022/04/23 00:07:00;;;;;;;15.1;13.7;;;;;;;11.1;100.0;100240;;;;
2022/04/23 00:08:00;;;;;;;15.1;13.7;;;;;;;11.1;100.0;100240;;;;
2022/04/23 00:09:00;;;;;;;15.1;13.7;;;;;;;11.1;100.0;100250;;;;
2022/04/23 00:10:00;;;;;;;15.1;13.7;;;;;;;11.1;100.0;100250;;;;
2022/04/23 00:11:00;;;;;;;15.1;13.7;;;;;;;11.1;100.0;100250;;;;
2022/04/23 00:12:01;;;;;;;16.0;14.4;;;;;;;11.1;100.0;100250;;;;
2022/04/23 00:13:00;;;;;;;16.0;14.4;;;;;;;11.1;100.0;100240;;;;
2022/04/23 00:14:00;;;;;;;16.0;14.4;;;;;;;11.1;100.0;100240;;;;
2022/04/23 00:15:00;;;;;;;16.0;14.4;;;;;;;10.9;100.0;100250;;;;
2022/04/23 00:16:00;;;;;;;16.0;14.4;;;;;;;10.9;100.0;100250;;;;
2022/04/23 00:17:00;;;;;;;16.0;14.4;;;;;;;10.9;100.0;100240;;;;
2022/04/23 00:19:00;;;;;;;16.0;14.4;;;;;;;10.9;100.0;100240;;;;
2022/04/23 00:20:00;;;;;;;16.0;14.4;;;;;;;10.9;100.0;100240;;;;
2022/04/23 00:21:00;;;;;;;16.0;14.4;;;;;;;11.0;100.0;100240;;;;
2022/04/23 00:22:00;;;;;;;16.0;14.4;;;;;;;11.0;100.0;100240;;;;
2022/04/23 00:23:00;;;;;;;16.0;14.4;;;;;;;11.0;100.0;100240;;;;
2022/04/23 00:24:00;;;;;;;16.0;14.4;;;;;;;11.0;100.0;100240;;;;
2022/04/23 00:25:00;;;;;;;16.0;14.4;;;;;;;10.9;100.0;100240;;;;
2022/04/23 00:31:00;;;;;;;17.4;15.9;;;;;;;10.9;100.0;100250;;;;
2022/04/23 00:32:00;;;;;;;17.4;15.9;;;;;;;10.9;100.0;100250;;;;
2022/04/23 00:33:00;;;;;;;17.4;15.9;;;;;;;10.9;100.0;100250;;;;
2022/04/23 00:34:00;;;;;;;17.4;15.9;;;;;;;10.9;100.0;100250;;;;
2022/04/23 00:35:00;;;;;;;17.4;15.9;;;;;;;10.9;100.0;100250;;;;
2022/04/23 00:36:00;;;;;;;17.4;15.9;;;;;;;10.9;100.0;100250;;;;
2022/04/23 00:37:00;;;;;;;17.4;15.9;;;;;;;10.9;100.0;100250;;;;
2022/04/23 00:38:00;;;;;;;17.4;15.9;;;;;;;10.9;100.0;100250;;;;
2022/04/23 00:39:00;;;;;;;17.4;15.9;;;;;;;10.9;100.0;100250;;;;
2022/04/23 00:40:00;;;;;;;17.4;15.9;;;;;;;10.9;100.0;100250;;;;
2022/04/23 00:51:00;;;;;;;18.5;16.8;;;;;;;10.8;100.0;100240;;;;
2022/04/23 00:52:00;;;;;;;18.5;16.8;;;;;;;10.8;100.0;100250;;;;
2022/04/23 00:53:01;;;;;;;18.5;16.8;;;;;;;10.8;100.0;100250;;;;
2022/04/23 00:54:04;;;;;;;18.5;16.8;;;;;;;10.7;100.0;100250;;;;
2022/04/23 00:55:00;;;;;;;18.5;16.8;;;;;;;10.7;100.0;100250;;;;
2022/04/23 00:56:00;;;;;;;18.5;16.8;;;;;;;10.8;100.0;100250;;;;
2022/04/23 00:57:00;;;;;;;18.5;16.8;;;;;;;10.8;100.0;100250;;;;
2022/04/23 00:58:00;;;;;;;18.5;16.8;;;;;;;10.9;100.0;100250;;;;
2022/04/23 00:59:01;;;;;;;18.5;16.8;;;;;;;10.9;100.0;100250;;;;
2022/04/23 01:00:01;;;;;;;18.5;16.8;;;;;;;10.8;100.0;100250;;;;
2022/04/23 01:01:00;;;;;;;18.5;16.8;;;;;;;10.8;100.0;100250;;;;
2022/04/23 01:02:03;;;;;;;18.5;16.8;;;;;;;10.7;100.0;100250;;;;
2022/04/23 01:03:00;;;;;;;18.5;16.8;;;;;;;10.7;100.0;100250;;;;
2022/04/23 01:04:02;;;;;;;18.5;16.8;;;;;;;10.7;100.0;100250;;;;
2022/04/23 01:05:00;;;;;;;18.5;16.8;;;;;;;10.7;100.0;100250;;;;
2022/04/23 01:06:00;;;;;;;18.5;16.8;;;;;;;10.7;100.0;100250;;;;
2022/04/23 01:07:00;;;;;;;18.5;16.8;;;;;;;10.7;100.0;100250;;;;
2022/04/23 01:08:02;;;;;;;18.5;16.8;;;;;;;10.6;100.0;100250;;;;
2022/04/23 01:09:03;;;;;;;18.5;16.8;;;;;;;10.6;100.0;100250;;;;
2022/04/23 01:10:00;;;;;;;18.5;16.8;;;;;;;10.6;100.0;100250;;;;
2022/04/23 01:11:00;;;;;;;19.1;17.4;;;;;;;10.6;100.0;100250;;;;
2022/04/23 01:12:01;;;;;;;19.1;17.4;;;;;;;10.6;100.0;100250;;;;
2022/04/23 01:13:00;;;;;;;19.1;17.4;;;;;;;10.6;100.0;100250;;;;
2022/04/23 01:14:01;;;;;;;19.1;17.4;;;;;;;10.6;100.0;100250;;;;
2022/04/23 01:15:01;;;;;;;19.1;17.4;;;;;;;10.6;100.0;100250;;;;
2022/04/23 01:16:02;;;;;;;19.1;17.4;;;;;;;10.6;100.0;100240;;;;
2022/04/23 01:17:00;;;;;;;19.1;17.4;;;;;;;10.6;100.0;100240;;;;
2022/04/23 01:18:00;;;;;;;19.1;17.4;;;;;;;10.6;100.0;100250;;;;
2022/04/23 01:19:00;;;;;;;19.1;17.4;;;;;;;10.6;100.0;100250;;;;
2022/04/23 01:20:10;;;;;;;19.1;17.4;;;;;;;10.6;100.0;100250;;;;
2022/04/23 01:22:00;;;;;;;19.1;17.4;;;;;;;10.6;100.0;100250;;;;
2022/04/23 01:23:00;;;;;;;19.1;17.4;;;;;;;10.6;100.0;100250;;;;
2022/04/23 01:24:00;;;;;;;19.1;17.4;;;;;;;10.6;100.0;100250;;;;
2022/04/23 01:25:00;;;;;;;19.1;17.4;;;;;;;10.6;100.0;100250;;;;
2022/04/23 01:26:00;;;;;;;19.1;17.4;;;;;;;10.7;100.0;100250;;;;
2022/04/23 01:27:00;;;;;;;19.1;17.4;;;;;;;10.7;100.0;100250;;;;
2022/04/23 01:28:00;;;;;;;19.1;17.4;;;;;;;10.7;100.0;100250;;;;
2022/04/23 01:29:00;;;;;;;19.1;17.4;;;;;;;10.7;100.0;100250;;;;
2022/04/23 01:30:01;;;;;;;19.1;17.4;;;;;;;10.6;100.0;100250;;;;
2022/04/23 01:31:00;;;;;;;21.1;19.2;;;;;;;10.6;100.0;100250;;;;
2022/04/23 01:32:03;;;;;;;21.1;19.2;;;;;;;10.6;100.0;100250;;;;
2022/04/23 01:33:00;;;;;;;21.1;19.2;;;;;;;10.6;100.0;100250;;;;
2022/04/23 01:34:00;;;;;;;21.1;19.2;;;;;;;10.5;100.0;100250;;;;
2022/04/23 01:35:00;;;;;;;21.1;19.2;;;;;;;10.5;100.0;100250;;;;
2022/04/23 01:36:00;;;;;;;21.1;19.2;;;;;;;10.4;100.0;100250;;;;
2022/04/23 01:37:00;;;;;;;21.1;19.2;;;;;;;10.4;100.0;100250;;;;
2022/04/23 01:38:00;;;;;;;21.1;19.2;;;;;;;10.5;100.0;100250;;;;
2022/04/23 01:39:00;;;;;;;21.1;19.2;;;;;;;10.5;100.0;100250;;;;
2022/04/23 01:41:00;;;;;;;21.1;19.2;;;;;;;10.4;100.0;100250;;;;
2022/04/23 01:42:00;;;;;;;21.1;19.2;;;;;;;10.5;100.0;100250;;;;
2022/04/23 01:43:00;;;;;;;21.1;19.2;;;;;;;10.5;100.0;100250;;;;
2022/04/23 01:44:00;;;;;;;21.1;19.2;;;;;;;10.4;100.0;100250;;;;
2022/04/23 01:45:00;;;;;;;21.1;19.2;;;;;;;10.4;100.0;100250;;;;
2022/04/23 01:46:00;;;;;;;21.1;19.2;;;;;;;10.4;100.0;100250;;;;
2022/04/23 01:47:00;;;;;;;21.1;19.2;;;;;;;10.4;100.0;100250;;;;
2022/04/23 01:48:00;;;;;;;21.1;19.2;;;;;;;10.5;100.0;100250;;;;
2022/04/23 01:49:00;;;;;;;21.1;19.2;;;;;;;10.5;100.0;100250;;;;
2022/04/23 01:50:00;;;;;;;21.1;19.2;;;;;;;10.4;100.0;100250;;;;
2022/04/23 01:51:00;;;;;;;24.1;21.9;;;;;;;10.4;100.0;100250;;;;
2022/04/23 01:52:00;;;;;;;24.1;21.9;;;;;;;10.4;100.0;100250;;;;
2022/04/23 01:53:00;;;;;;;24.1;21.9;;;;;;;10.4;100.0;100250;;;;
2022/04/23 01:54:00;;;;;;;24.1;21.9;;;;;;;10.5;100.0;100250;;;;
2022/04/23 01:55:00;;;;;;;24.1;21.9;;;;;;;10.5;100.0;100250;;;;
2022/04/23 01:56:00;;;;;;;24.1;21.9;;;;;;;10.4;100.0;100250;;;;
2022/04/23 01:57:00;;;;;;;24.1;21.9;;;;;;;10.4;100.0;100250;;;;
2022/04/23 01:58:00;;;;;;;24.1;21.9;;;;;;;10.4;100.0;100260;;;;
2022/04/23 01:59:00;;;;;;;24.1;21.9;;;;;;;10.4;100.0;100260;;;;
2022/04/23 02:00:00;;;;;;;24.1;21.9;;;;;;;10.4;100.0;100250;;;;
2022/04/23 02:01:00;;;;;;;24.1;21.9;;;;;;;10.4;100.0;100250;;;;
2022/04/23 02:02:00;;;;;;;24.1;21.9;;;;;;;10.3;100.0;100250;;;;
2022/04/23 02:03:00;;;;;;;24.1;21.9;;;;;;;10.3;100.0;100250;;;;
2022/04/23 02:04:00;;;;;;;24.1;21.9;;;;;;;10.3;100.0;100250;;;;
2022/04/23 02:05:00;;;;;;;24.1;21.9;;;;;;;10.3;100.0;100250;;;;
2022/04/23 02:06:00;;;;;;;24.1;21.9;;;;;;;10.2;100.0;100250;;;;
2022/04/23 02:07:00;;;;;;;24.1;21.9;;;;;;;10.2;100.0;100250;;;;
2022/04/23 02:08:00;;;;;;;24.1;21.9;;;;;;;10.2;100.0;100250;;;;
2022/04/23 02:09:00;;;;;;;24.1;21.9;;;;;;;10.2;100.0;100250;;;;
2022/04/23 02:10:00;;;;;;;24.1;21.9;;;;;;;10.3;100.0;100250;;;;
2022/04/23 02:11:00;;;;;;;25.1;22.8;;;;;;;10.3;100.0;100250;;;;
2022/04/23 02:12:00;;;;;;;25.1;22.8;;;;;;;10.2;100.0;100260;;;;
2022/04/23 02:13:00;;;;;;;25.1;22.8;;;;;;;10.2;100.0;100260;;;;
2022/04/23 02:14:02;;;;;;;25.1;22.8;;;;;;;10.2;100.0;100260;;;;
2022/04/23 02:15:00;;;;;;;25.1;22.8;;;;;;;10.2;100.0;100260;;;;
2022/04/23 02:16:03;;;;;;;25.1;22.8;;;;;;;10.1;100.0;100260;;;;
2022/04/23 02:17:01;;;;;;;25.1;22.8;;;;;;;10.1;100.0;100260;;;;
2022/04/23 02:18:00;;;;;;;25.1;22.8;;;;;;;10.1;100.0;100250;;;;
2022/04/23 02:19:03;;;;;;;25.1;22.8;;;;;;;10.1;100.0;100250;;;;
2022/04/23 02:20:02;;;;;;;25.1;22.8;;;;;;;10.2;100.0;100260;;;;
2022/04/23 02:21:00;;;;;;;25.1;22.8;;;;;;;10.2;100.0;100260;;;;
2022/04/23 02:22:00;;;;;;;25.1;22.8;;;;;;;10.1;100.0;100260;;;;
2022/04/23 02:23:00;;;;;;;25.1;22.8;;;;;;;10.1;100.0;100260;;;;
2022/04/23 02:24:04;;;;;;;25.1;22.8;;;;;;;10.2;100.0;100250;;;;
2022/04/23 02:25:00;;;;;;;25.1;22.8;;;;;;;10.2;100.0;100250;;;;
2022/04/23 02:26:00;;;;;;;25.1;22.8;;;;;;;10.1;100.0;100250;;;;
2022/04/23 02:27:00;;;;;;;25.1;22.8;;;;;;;10.1;100.0;100250;;;;
2022/04/23 02:28:00;;;;;;;25.1;22.8;;;;;;;10.1;100.0;100250;;;;
2022/04/23 02:29:00;;;;;;;25.1;22.8;;;;;;;10.1;100.0;100250;;;;
2022/04/23 02:30:00;;;;;;;25.1;22.8;;;;;;;10.1;100.0;100260;;;;
2022/04/23 02:31:00;;;;;;;26.1;23.7;;;;;;;10.1;100.0;100260;;;;
2022/04/23 02:32:00;;;;;;;26.1;23.7;;;;;;;10.1;100.0;100260;;;;
2022/04/23 02:33:00;;;;;;;26.1;23.7;;;;;;;10.1;100.0;100260;;;;
2022/04/23 02:34:00;;;;;;;26.1;23.7;;;;;;;10.1;100.0;100260;;;;
2022/04/23 02:35:00;;;;;;;26.1;23.7;;;;;;;10.1;100.0;100260;;;;
2022/04/23 02:36:00;;;;;;;26.1;23.7;;;;;;;10.1;100.0;100260;;;;
2022/04/23 02:37:00;;;;;;;26.1;23.7;;;;;;;10.1;100.0;100260;;;;
2022/04/23 02:38:02;;;;;;;26.1;23.7;;;;;;;10.1;100.0;100260;;;;
2022/04/23 02:39:01;;;;;;;26.1;23.7;;;;;;;10.1;100.0;100260;;;;
2022/04/23 02:40:01;;;;;;;26.1;23.7;;;;;;;10.1;100.0;100260;;;;
2022/04/23 02:41:00;;;;;;;26.1;23.7;;;;;;;10.1;100.0;100260;;;;
2022/04/23 02:42:00;;;;;;;26.1;23.7;;;;;;;10.1;100.0;100260;;;;
2022/04/23 02:43:02;;;;;;;26.1;23.7;;;;;;;10.1;100.0;100260;;;;
2022/04/23 02:44:00;;;;;;;26.1;23.7;;;;;;;10.0;100.0;100260;;;;
2022/04/23 02:45:01;;;;;;;26.1;23.7;;;;;;;10.0;100.0;100260;;;;
2022/04/23 02:46:01;;;;;;;26.1;23.7;;;;;;;9.9;100.0;100250;;;;
2022/04/23 02:47:00;;;;;;;26.1;23.7;;;;;;;9.9;100.0;100250;;;;
2022/04/23 02:48:00;;;;;;;26.1;23.7;;;;;;;10.0;100.0;100250;;;;
2022/04/23 02:49:00;;;;;;;26.1;23.7;;;;;;;10.0;100.0;100250;;;;
2022/04/23 02:50:00;;;;;;;26.1;23.7;;;;;;;10.0;100.0;100250;;;;
2022/04/23 02:51:00;;;;;;;28.2;25.6;;;;;;;10.0;100.0;100250;;;;
2022/04/23 02:52:00;;;;;;;28.2;25.6;;;;;;;10.1;100.0;100250;;;;
2022/04/23 02:53:00;;;;;;;28.2;25.6;;;;;;;10.1;100.0;100250;;;;
2022/04/23 02:54:00;;;;;;;28.2;25.6;;;;;;;10.1;100.0;100250;;;;
2022/04/23 02:55:00;;;;;;;28.2;25.6;;;;;;;10.1;100.0;100250;;;;
2022/04/23 02:56:02;;;;;;;28.2;25.6;;;;;;;10.1;100.0;100250;;;;
2022/04/23 02:57:00;;;;;;;28.2;25.6;;;;;;;10.1;100.0;100250;;;;
2022/04/23 02:58:00;;;;;;;28.2;25.6;;;;;;;10.0;100.0;100250;;;;
2022/04/23 02:59:02;;;;;;;28.2;25.6;;;;;;;10.0;100.0;100250;;;;
2022/04/23 03:00:00;;;;;;;28.2;25.6;;;;;;;10.0;100.0;100250;;;;
2022/04/23 03:01:00;;;;;;;28.2;25.6;;;;;;;10.0;100.0;100250;;;;
2022/04/23 03:02:00;;;;;;;28.2;25.6;;;;;;;10.0;100.0;100250;;;;
2022/04/23 03:03:00;;;;;;;28.2;25.6;;;;;;;10.0;100.0;100250;;;;
2022/04/23 03:04:00;;;;;;;28.2;25.6;;;;;;;10.0;100.0;100250;;;;
2022/04/23 03:05:00;;;;;;;28.2;25.6;;;;;;;10.0;100.0;100250;;;;
2022/04/23 03:06:01;;;;;;;28.2;25.6;;;;;;;10.1;100.0;100240;;;;
2022/04/23 03:07:03;;;;;;;28.2;25.6;;;;;;;10.1;100.0;100240;;;;
2022/04/23 03:08:00;;;;;;;28.2;25.6;;;;;;;10.1;100.0;100240;;;;
2022/04/23 03:09:03;;;;;;;28.2;25.6;;;;;;;10.1;100.0;100240;;;;
2022/04/23 03:10:00;;;;;;;28.2;25.6;;;;;;;10.1;100.0;100250;;;;
2022/04/23 03:11:00;;;;;;;29.2;26.5;;;;;;;10.1;100.0;100250;;;;
2022/04/23 03:12:00;;;;;;;29.2;26.5;;;;;;;10.2;100.0;100250;;;;
2022/04/23 03:13:00;;;;;;;29.2;26.5;;;;;;;10.2;100.0;100250;;;;
2022/04/23 03:14:00;;;;;;;29.2;26.5;;;;;;;10.2;100.0;100250;;;;
2022/04/23 03:15:00;;;;;;;29.2;26.5;;;;;;;10.2;100.0;100250;;;;
2022/04/23 03:16:01;;;;;;;29.2;26.5;;;;;;;10.2;100.0;100240;;;;
2022/04/23 03:17:00;;;;;;;29.2;26.5;;;;;;;10.2;100.0;100240;;;;
2022/04/23 03:18:08;;;;;;;29.2;26.5;;;;;;;10.3;100.0;100240;;;;
2022/04/23 03:19:00;;;;;;;29.2;26.5;;;;;;;10.3;100.0;100240;;;;
2022/04/23 03:20:01;;;;;;;29.2;26.5;;;;;;;10.2;100.0;100240;;;;
2022/04/23 03:21:00;;;;;;;29.2;26.5;;;;;;;10.2;100.0;100240;;;;
2022/04/23 03:22:00;;;;;;;29.2;26.5;;;;;;;10.2;100.0;100240;;;;
2022/04/23 03:23:00;;;;;;;29.2;26.5;;;;;;;10.2;100.0;100240;;;;
2022/04/23 03:24:00;;;;;;;29.2;26.5;;;;;;;10.2;100.0;100250;;;;
2022/04/23 03:25:00;;;;;;;29.2;26.5;;;;;;;10.2;100.0;100250;;;;
2022/04/23 03:26:00;;;;;;;29.2;26.5;;;;;;;10.2;100.0;100240;;;;
2022/04/23 03:27:01;;;;;;;29.2;26.5;;;;;;;10.2;100.0;100240;;;;
2022/04/23 03:28:00;;;;;;;29.2;26.5;;;;;;;10.2;100.0;100240;;;;
2022/04/23 03:29:00;;;;;;;29.2;26.5;;;;;;;10.2;100.0;100240;;;;
2022/04/23 03:30:00;;;;;;;29.2;26.5;;;;;;;10.1;100.0;100240;;;;
2022/04/23 03:31:00;;;;;;;29.8;27.1;;;;;;;10.1;100.0;100240;;;;
2022/04/23 03:32:00;;;;;;;29.8;27.1;;;;;;;10.1;100.0;100240;;;;
2022/04/23 03:33:00;;;;;;;29.8;27.1;;;;;;;10.1;100.0;100240;;;;
2022/04/23 03:34:00;;;;;;;29.8;27.1;;;;;;;10.1;100.0;100230;;;;
2022/04/23 03:35:00;;;;;;;29.8;27.1;;;;;;;10.1;100.0;100230;;;;
2022/04/23 03:36:00;;;;;;;29.8;27.1;;;;;;;10.1;100.0;100230;;;;
2022/04/23 03:37:00;;;;;;;29.8;27.1;;;;;;;10.1;100.0;100230;;;;
2022/04/23 03:38:01;;;;;;;29.8;27.1;;;;;;;10.1;100.0;100230;;;;
2022/04/23 03:39:00;;;;;;;29.8;27.1;;;;;;;10.1;100.0;100230;;;;
2022/04/23 03:40:03;;;;;;;29.8;27.1;;;;;;;10.0;100.0;100230;;;;
2022/04/23 03:41:00;;;;;;;29.8;27.1;;;;;;;10.0;100.0;100230;;;;
2022/04/23 03:42:01;;;;;;;29.8;27.1;;;;;;;10.0;100.0;100230;;;;
2022/04/23 03:43:00;;;;;;;29.8;27.1;;;;;;;10.0;100.0;100230;;;;
2022/04/23 03:44:00;;;;;;;29.8;27.1;;;;;;;10.0;100.0;100230;;;;
2022/04/23 03:45:00;;;;;;;29.8;27.1;;;;;;;10.0;100.0;100230;;;;
2022/04/23 03:46:00;;;;;;;29.8;27.1;;;;;;;10.0;100.0;100230;;;;
2022/04/23 03:47:01;;;;;;;29.8;27.1;;;;;;;10.0;100.0;100230;;;;
2022/04/23 03:48:01;;;;;;;29.8;27.1;;;;;;;9.9;100.0;100230;;;;
2022/04/23 03:49:00;;;;;;;29.8;27.1;;;;;;;9.9;100.0;100230;;;;
2022/04/23 03:50:04;;;;;;;29.8;27.1;;;;;;;9.9;100.0;100230;;;;
2022/04/23 03:51:00;;;;;;;29.9;27.0;;;;;;;9.9;100.0;100230;;;;
2022/04/23 03:52:00;;;;;;;29.9;27.0;;;;;;;10.1;100.0;100230;;;;
2022/04/23 03:53:00;;;;;;;29.9;27.0;;;;;;;10.1;100.0;100230;;;;
2022/04/23 03:54:01;;;;;;;29.9;27.0;;;;;;;10.0;100.0;100230;;;;
2022/04/23 03:55:00;;;;;;;29.9;27.0;;;;;;;10.0;100.0;100230;;;;
2022/04/23 03:56:01;;;;;;;29.9;27.0;;;;;;;9.9;100.0;100230;;;;
2022/04/23 03:57:00;;;;;;;29.9;27.0;;;;;;;9.9;100.0;100230;;;;
2022/04/23 03:58:00;;;;;;;29.9;27.0;;;;;;;10.0;100.0;100220;;;;
2022/04/23 03:59:00;;;;;;;29.9;27.0;;;;;;;10.0;100.0;100220;;;;
2022/04/23 04:00:03;;;;;;;29.9;27.0;;;;;;;10.0;100.0;100220;;;;
2022/04/23 04:01:00;;;;;;;29.9;27.0;;;;;;;10.0;100.0;100220;;;;
2022/04/23 04:02:04;;;;;;;29.9;27.0;;;;;;;9.9;100.0;100230;;;;
2022/04/23 04:03:00;;;;;;;29.9;27.0;;;;;;;9.9;100.0;100230;;;;
2022/04/23 04:04:00;;;;;;;29.9;27.0;;;;;;;9.8;100.0;100220;;;;
2022/04/23 04:05:00;;;;;;;29.9;27.0;;;;;;;9.8;100.0;100220;;;;
2022/04/23 04:06:00;;;;;;;29.9;27.0;;;;;;;9.8;100.0;100230;;;;
2022/04/23 04:07:00;;;;;;;29.9;27.0;;;;;;;9.8;100.0;100230;;;;
2022/04/23 04:08:00;;;;;;;29.9;27.0;;;;;;;9.8;100.0;100220;;;;
2022/04/23 04:09:00;;;;;;;29.9;27.0;;;;;;;9.8;100.0;100220;;;;
2022/04/23 04:10:01;;;;;;;29.9;27.0;;;;;;;9.9;100.0;100220;;;;
2022/04/23 04:11:00;;;;;;;31.9;29.0;;;;;;;9.9;100.0;100220;;;;
2022/04/23 04:12:01;;;;;;;31.9;29.0;;;;;;;9.9;100.0;100220;;;;
2022/04/23 04:13:02;;;;;;;31.9;29.0;;;;;;;9.9;100.0;100220;;;;
2022/04/23 04:14:00;;;;;;;31.9;29.0;;;;;;;9.9;100.0;100220;;;;
2022/04/23 04:15:00;;;;;;;31.9;29.0;;;;;;;9.9;100.0;100220;;;;
2022/04/23 04:16:00;;;;;;;31.9;29.0;;;;;;;9.8;100.0;100220;;;;
2022/04/23 04:17:01;;;;;;;31.9;29.0;;;;;;;9.8;100.0;100220;;;;
2022/04/23 04:18:01;;;;;;;31.9;29.0;;;;;;;9.8;100.0;100220;;;;
2022/04/23 04:19:00;;;;;;;31.9;29.0;;;;;;;9.8;100.0;100220;;;;
2022/04/23 04:20:00;;;;;;;31.9;29.0;;;;;;;9.8;100.0;100220;;;;
2022/04/23 04:21:00;;;;;;;31.9;29.0;;;;;;;9.8;100.0;100220;;;;
2022/04/23 04:22:03;;;;;;;31.9;29.0;;;;;;;9.7;100.0;100220;;;;
2022/04/23 04:23:00;;;;;;;31.9;29.0;;;;;;;9.7;100.0;100220;;;;
2022/04/23 04:24:00;;;;;;;31.9;29.0;;;;;;;9.7;100.0;100220;;;;
2022/04/23 04:25:01;;;;;;;31.9;29.0;;;;;;;9.7;100.0;100220;;;;
2022/04/23 04:26:00;;;;;;;31.9;29.0;;;;;;;9.8;100.0;100220;;;;
2022/04/23 04:27:00;;;;;;;31.9;29.0;;;;;;;9.8;100.0;100220;;;;
2022/04/23 04:28:00;;;;;;;31.9;29.0;;;;;;;9.8;100.0;100220;;;;
2022/04/23 04:29:00;;;;;;;31.9;29.0;;;;;;;9.8;100.0;100220;;;;
2022/04/23 04:30:08;;;;;;;32.3;29.4;;;;;;;9.8;100.0;100220;;;;
2022/04/23 04:32:00;;;;;;;32.3;29.4;;;;;;;9.8;100.0;100220;;;;
2022/04/23 04:33:00;;;;;;;32.3;29.4;;;;;;;9.8;100.0;100220;;;;
2022/04/23 04:34:00;;;;;;;32.3;29.4;;;;;;;9.8;100.0;100220;;;;
2022/04/23 04:35:00;;;;;;;32.3;29.4;;;;;;;9.8;100.0;100220;;;;
2022/04/23 04:36:00;;;;;;;32.3;29.4;;;;;;;9.6;100.0;100210;;;;
2022/04/23 04:37:02;;;;;;;32.3;29.4;;;;;;;9.6;100.0;100210;;;;
2022/04/23 04:38:00;;;;;;;32.3;29.4;;;;;;;9.7;100.0;100210;;;;
2022/04/23 04:39:00;;;;;;;32.3;29.4;;;;;;;9.7;100.0;100210;;;;
2022/04/23 04:40:00;;;;;;;32.3;29.4;;;;;;;9.8;100.0;100210;;;;
2022/04/23 04:41:00;;;;;;;32.3;29.4;;;;;;;9.8;100.0;100210;;;;
2022/04/23 04:42:01;;;;;;;32.3;29.4;;;;;;;9.8;100.0;100210;;;;
2022/04/23 04:43:00;;;;;;;32.3;29.4;;;;;;;9.8;100.0;100210;;;;
2022/04/23 04:44:00;;;;;;;32.3;29.4;;;;;;;9.7;100.0;100210;;;;
2022/04/23 04:45:00;;;;;;;32.3;29.4;;;;;;;9.7;100.0;100210;;;;
2022/04/23 04:46:00;;;;;;;32.3;29.4;;;;;;;9.6;100.0;100210;;;;
2022/04/23 04:47:00;;;;;;;32.3;29.4;;;;;;;9.6;100.0;100210;;;;
2022/04/23 04:48:00;;;;;;;32.3;29.4;;;;;;;9.7;100.0;100210;;;;
2022/04/23 04:49:01;;;;;;;32.3;29.4;;;;;;;9.7;100.0;100210;;;;
2022/04/23 04:50:00;;;;;;;32.3;29.4;;;;;;;9.6;100.0;100210;;;;
2022/04/23 04:51:00;;;;;;;30.9;28.0;;;;;;;9.6;100.0;100210;;;;
2022/04/23 04:52:00;;;;;;;30.9;28.0;;;;;;;9.7;100.0;100220;;;;
2022/04/23 04:53:00;;;;;;;30.9;28.0;;;;;;;9.7;100.0;100220;;;;
2022/04/23 04:54:00;;;;;;;30.9;28.0;;;;;;;9.7;100.0;100220;;;;
2022/04/23 04:55:00;;;;;;;30.9;28.0;;;;;;;9.7;100.0;100220;;;;
2022/04/23 04:56:00;;;;;;;30.9;28.0;;;;;;;9.8;100.0;100220;;;;
2022/04/23 04:57:02;;;;;;;30.9;28.0;;;;;;;9.8;100.0;100220;;;;
2022/04/23 04:58:00;;;;;;;30.9;28.0;;;;;;;9.9;100.0;100220;;;;
2022/04/23 04:59:00;;;;;;;30.9;28.0;;;;;;;9.9;100.0;100220;;;;
2022/04/23 05:00:00;;;;;;;30.9;28.0;;;;;;;9.9;100.0;100220;;;;
2022/04/23 05:01:00;;;;;;;30.9;28.0;;;;;;;9.9;100.0;100220;;;;
2022/04/23 05:02:00;;;;;;;30.9;28.0;;;;;;;9.9;100.0;100220;;;;
2022/04/23 05:03:00;;;;;;;30.9;28.0;;;;;;;9.9;100.0;100220;;;;
2022/04/23 05:04:00;;;;;;;30.9;28.0;;;;;;;9.9;100.0;100220;;;;
2022/04/23 05:05:00;;;;;;;30.9;28.0;;;;;;;9.9;100.0;100220;;;;
2022/04/23 05:06:00;;;;;;;30.9;28.0;;;;;;;9.9;100.0;100220;;;;
2022/04/23 05:07:00;;;;;;;30.9;28.0;;;;;;;9.9;100.0;100220;;;;
2022/04/23 05:08:00;;;;;;;30.9;28.0;;;;;;;9.9;100.0;100230;;;;
2022/04/23 05:09:00;;;;;;;30.9;28.0;;;;;;;9.9;100.0;100230;;;;
2022/04/23 05:10:00;;;;;;;32.2;29.2;;;;;;;10.0;100.0;100230;;;;
2022/04/23 05:11:00;;;;;;;32.2;29.2;;;;;;;10.0;100.0;100230;;;;
2022/04/23 05:12:00;;;;;;;32.2;29.2;;;;;;;9.9;100.0;100230;;;;
2022/04/23 05:13:00;;;;;;;32.2;29.2;;;;;;;9.9;100.0;100230;;;;
2022/04/23 05:14:00;;;;;;;32.2;29.2;;;;;;;9.9;100.0;100230;;;;
2022/04/23 05:15:00;;;;;;;32.2;29.2;;;;;;;9.9;100.0;100230;;;;
2022/04/23 05:16:00;;;;;;;32.2;29.2;;;;;;;9.9;100.0;100230;;;;
2022/04/23 05:17:00;;;;;;;32.2;29.2;;;;;;;9.9;100.0;100230;;;;
2022/04/23 05:18:00;;;;;;;32.2;29.2;;;;;;;9.9;100.0;100220;;;;
2022/04/23 05:19:00;;;;;;;32.2;29.2;;;;;;;9.9;100.0;100220;;;;
2022/04/23 05:20:00;;;;;;;32.2;29.2;;;;;;;9.9;100.0;100230;;;;
2022/04/23 05:21:00;;;;;;;32.2;29.2;;;;;;;9.9;100.0;100230;;;;
2022/04/23 05:22:00;;;;;;;32.2;29.2;;;;;;;9.9;100.0;100220;;;;
2022/04/23 05:23:00;;;;;;;32.2;29.2;;;;;;;9.9;100.0;100220;;;;
2022/04/23 05:24:00;;;;;;;32.2;29.2;;;;;;;10.0;100.0;100230;;;;
2022/04/23 05:25:00;;;;;;;32.2;29.2;;;;;;;10.0;100.0;100230;;;;
2022/04/23 05:26:00;;;;;;;32.2;29.2;;;;;;;10.0;100.0;100220;;;;
2022/04/23 05:27:00;;;;;;;32.2;29.2;;;;;;;10.0;100.0;100220;;;;
2022/04/23 05:28:00;;;;;;;32.2;29.2;;;;;;;10.0;100.0;100230;;;;
2022/04/23 05:29:00;;;;;;;32.2;29.2;;;;;;;10.0;100.0;100230;;;;
2022/04/23 05:30:00;;;;;;;31.5;28.6;;;;;;;10.0;100.0;100230;;;;
2022/04/23 05:31:00;;;;;;;31.5;28.6;;;;;;;10.0;100.0;100230;;;;
2022/04/23 05:32:00;;;;;;;31.5;28.6;;;;;;;10.1;100.0;100230;;;;
2022/04/23 05:33:00;;;;;;;31.5;28.6;;;;;;;10.1;100.0;100230;;;;
2022/04/23 05:34:00;;;;;;;31.5;28.6;;;;;;;10.2;100.0;100220;;;;
2022/04/23 05:35:00;;;;;;;31.5;28.6;;;;;;;10.2;100.0;100220;;;;
2022/04/23 05:36:00;;;;;;;31.5;28.6;;;;;;;10.2;100.0;100230;;;;
2022/04/23 05:37:00;;;;;;;31.5;28.6;;;;;;;10.2;100.0;100230;;;;
2022/04/23 05:38:00;;;;;;;31.5;28.6;;;;;;;10.1;100.0;100230;;;;
2022/04/23 05:39:00;;;;;;;31.5;28.6;;;;;;;10.1;100.0;100230;;;;
2022/04/23 05:40:00;;;;;;;31.5;28.6;;;;;;;10.2;100.0;100230;;;;
2022/04/23 05:41:00;;;;;;;31.5;28.6;;;;;;;10.2;100.0;100230;;;;
2022/04/23 05:42:00;;;;;;;31.5;28.6;;;;;;;10.3;100.0;100230;;;;
2022/04/23 05:43:00;;;;;;;31.5;28.6;;;;;;;10.3;100.0;100230;;;;
2022/04/23 05:44:00;;;;;;;31.5;28.6;;;;;;;10.4;100.0;100230;;;;
2022/04/23 05:45:00;;;;;;;31.5;28.6;;;;;;;10.4;100.0;100230;;;;
2022/04/23 05:46:01;;;;;;;31.5;28.6;;;;;;;10.3;100.0;100230;;;;
2022/04/23 05:47:00;;;;;;;31.5;28.6;;;;;;;10.3;100.0;100230;;;;
2022/04/23 05:48:00;;;;;;;31.5;28.6;;;;;;;10.3;100.0;100230;;;;
2022/04/23 05:49:00;;;;;;;31.5;28.6;;;;;;;10.3;100.0;100230;;;;
2022/04/23 05:50:00;;;;;;;31.7;28.8;;;;;;;10.3;100.0;100230;;;;
2022/04/23 05:51:01;;;;;;;31.7;28.8;;;;;;;10.3;100.0;100230;;;;
2022/04/23 05:52:00;;;;;;;31.7;28.8;;;;;;;10.3;100.0;100230;;;;
2022/04/23 05:53:00;;;;;;;31.7;28.8;;;;;;;10.3;100.0;100230;;;;
2022/04/23 05:54:05;;;;;;;31.7;28.8;;;;;;;10.4;100.0;100230;;;;
2022/04/23 05:55:00;;;;;;;31.7;28.8;;;;;;;10.4;100.0;100230;;;;
2022/04/23 05:56:00;;;;;;;31.7;28.8;;;;;;;10.4;100.0;100230;;;;
2022/04/23 05:57:00;;;;;;;31.7;28.8;;;;;;;10.4;100.0;100230;;;;
2022/04/23 05:58:00;;;;;;;31.7;28.8;;;;;;;10.5;100.0;100230;;;;
2022/04/23 05:59:00;;;;;;;31.7;28.8;;;;;;;10.5;100.0;100230;;;;
2022/04/23 06:00:00;;;;;;;31.7;28.8;;;;;;;10.5;100.0;100230;;;;
2022/04/23 06:01:01;;;;;;;31.7;28.8;;;;;;;10.5;100.0;100230;;;;
2022/04/23 06:02:00;;;;;;;31.7;28.8;;;;;;;10.6;100.0;100230;;;;
2022/04/23 06:03:00;;;;;;;31.7;28.8;;;;;;;10.6;100.0;100230;;;;
2022/04/23 06:04:00;;;;;;;31.7;28.8;;;;;;;10.6;100.0;100230;;;;
2022/04/23 06:05:00;;;;;;;31.7;28.8;;;;;;;10.6;100.0;100230;;;;
2022/04/23 06:06:00;;;;;;;31.7;28.8;;;;;;;10.7;100.0;100240;;;;
2022/04/23 06:07:00;;;;;;;31.7;28.8;;;;;;;10.7;100.0;100240;;;;
2022/04/23 06:08:00;;;;;;;31.7;28.8;;;;;;;10.7;100.0;100230;;;;
2022/04/23 06:09:00;;;;;;;31.7;28.8;;;;;;;10.7;100.0;100230;;;;
2022/04/23 06:10:00;;;;;;;30.5;27.8;;;;;;;10.8;100.0;100230;;;;
2022/04/23 06:11:00;;;;;;;30.5;27.8;;;;;;;10.8;100.0;100230;;;;
2022/04/23 06:12:00;;;;;;;30.5;27.8;;;;;;;10.8;100.0;100240;;;;
2022/04/23 06:13:00;;;;;;;30.5;27.8;;;;;;;10.8;100.0;100240;;;;
2022/04/23 06:14:01;;;;;;;30.5;27.8;;;;;;;10.8;100.0;100230;;;;
2022/04/23 06:15:00;;;;;;;30.5;27.8;;;;;;;10.8;100.0;100230;;;;
2022/04/23 06:16:00;;;;;;;30.5;27.8;;;;;;;10.9;100.0;100230;;;;
2022/04/23 06:17:00;;;;;;;30.5;27.8;;;;;;;10.9;100.0;100230;;;;
2022/04/23 06:18:00;;;;;;;30.5;27.8;;;;;;;11.0;100.0;100230;;;;
2022/04/23 06:19:00;;;;;;;30.5;27.8;;;;;;;11.0;100.0;100230;;;;
2022/04/23 06:20:00;;;;;;;30.5;27.8;;;;;;;10.9;100.0;100230;;;;
2022/04/23 06:21:00;;;;;;;30.5;27.8;;;;;;;10.9;100.0;100230;;;;
2022/04/23 06:22:00;;;;;;;30.5;27.8;;;;;;;11.0;100.0;100230;;;;
2022/04/23 06:23:04;;;;;;;30.5;27.8;;;;;;;11.0;100.0;100230;;;;
2022/04/23 06:24:00;;;;;;;30.5;27.8;;;;;;;10.9;100.0;100220;;;;
2022/04/23 06:25:00;;;;;;;30.5;27.8;;;;;;;10.9;100.0;100220;;;;
2022/04/23 06:26:00;;;;;;;30.5;27.8;;;;;;;11.0;100.0;100220;;;;
2022/04/23 06:27:00;;;;;;;30.5;27.8;;;;;;;11.0;100.0;100220;;;;
2022/04/23 06:28:00;;;;;;;30.5;27.8;;;;;;;11.2;100.0;100220;;;;
2022/04/23 06:29:00;;;;;;;30.5;27.8;;;;;;;11.2;100.0;100220;;;;
2022/04/23 06:30:00;;;;;;;30.2;27.6;;;;;;;11.1;100.0;100220;;;;
2022/04/23 06:31:00;;;;;;;30.2;27.6;;;;;;;11.1;100.0;100220;;;;